Airfield :
LOGIN :

Register | Disclaimer

   EN    FR    IT 

 










Legend :    VFR   Marginal VFR   IFR   Intensive IFR   Very Intensive IFR
Visi :
Ceiling :
>= 8 km
>= 3000ft
5 to 8 km
1000 to 3000 ft
1500m to 5 km
500 to 1000 ft
800 to 1500m
200 to 500 ft
< 800m
< 200 ft
Symbols :   Thunderstorms  Fog  Heavy snow  Heavy precipitations  Wind > 20 kt
SIGMETs :     Misc.  Thunderstorms  Icing  Turbulence  Mountain Waves  Volcanic Ashes






- Airport Elevation : 1363 ft


ETIC - Grafenwohr Army Air Field

CURRENT METAR :
  • 051856Z AUTO 22003KT 9999 CLR 23/15 A2993 RMK AO2 SLP119 T02310154 $

EXPIRED METARs :
  • 051756Z AUTO 25006KT 9999 SCT043 25/15 A2994 RMK AO2 SLP123 T02450154 10254 20235 57013 $
  • 051656Z AUTO 27009G15KT 9999 BKN041 25/15 A2995 RMK AO2 SLP126 T02490149 $

TAF TAF ETIC
Valid from the 05 at 18:00 until the 07 at 00:00 UTC


051800Z 0518/0624 24009KT 9999 BKN040 QNH2997INS
BECMG 0602/0603 24009KT 8000 -SHRA BKN020 OVC030 QNH2993INS
BECMG 0609/0610 27012G18KT 9999 NSW SCT040 BKN060 QNH2996INS
BECMG 0617/0618 28009KT 9999 BKN050 QNH3006INS TX24/0518Z TN16/0606Z



MET'MAP, your aeronautical weather chart ! - Copyright ORBIFLY December 2007 - Disclaimer

ORBIFLY MET'MAP TEAM :

Programming & Development : Alexandra Zaïnal
Concept & original design : Baudouin d'Aumeries
Assistance for programming : Marc-Olivier Méhu
Technical & hardware support : Manuel Goepfert

Contact : metmap@orbifly.com




SOURCES & CREDITS :

   NOAA